createdAt,value
2022-08-26T00:01:36.540Z,23.00
2022-08-26T00:07:38.875Z,22.90
2022-08-26T00:13:41.345Z,22.90
2022-08-26T00:19:50.003Z,22.80
2022-08-26T00:25:54.700Z,22.80
2022-08-26T00:31:58.794Z,22.80
2022-08-26T00:38:02.433Z,22.70
2022-08-26T00:44:05.649Z,22.70
2022-08-26T00:50:14.116Z,22.60
2022-08-26T00:56:29.349Z,22.60
2022-08-26T01:02:31.475Z,22.60
2022-08-26T01:08:34.106Z,22.60
2022-08-26T01:14:36.987Z,22.50
2022-08-26T01:21:06.313Z,22.40
2022-08-26T01:27:15.600Z,22.40
2022-08-26T01:33:23.608Z,22.30
2022-08-26T01:39:25.690Z,22.20
2022-08-26T01:45:32.189Z,22.20
2022-08-26T01:51:38.201Z,22.10
2022-08-26T01:57:41.042Z,22.00
2022-08-26T02:04:10.792Z,21.90
2022-08-26T02:10:13.093Z,21.60
2022-08-26T02:16:20.949Z,21.40
2022-08-26T02:22:24.932Z,21.20
2022-08-26T02:28:33.294Z,21.10
2022-08-26T02:34:35.318Z,21.10
2022-08-26T02:40:41.072Z,21.00
2022-08-26T02:46:47.097Z,21.00
2022-08-26T02:52:49.458Z,20.90
2022-08-26T02:58:52.297Z,20.80
2022-08-26T03:04:57.911Z,20.80
2022-08-26T03:11:04.276Z,20.80
2022-08-26T03:17:07.012Z,20.80
2022-08-26T03:23:12.479Z,20.70
2022-08-26T03:29:33.143Z,20.60
2022-08-26T03:35:35.729Z,20.70
2022-08-26T03:41:38.040Z,20.70
2022-08-26T03:47:40.747Z,20.70
2022-08-26T03:53:43.806Z,20.80
2022-08-26T03:59:45.755Z,20.80
2022-08-26T04:05:52.203Z,20.80
2022-08-26T04:11:57.609Z,20.80
2022-08-26T04:17:59.557Z,20.80
2022-08-26T04:24:03.393Z,20.70
2022-08-26T04:30:06.955Z,20.70
2022-08-26T04:36:11.803Z,20.80
2022-08-26T04:42:13.906Z,20.80
2022-08-26T04:48:16.864Z,20.60
2022-08-26T04:54:19.397Z,20.50
2022-08-26T05:00:22.161Z,20.70
2022-08-26T05:06:24.324Z,20.70
2022-08-26T05:12:27.854Z,20.80
2022-08-26T05:18:30.294Z,20.90
2022-08-26T05:24:32.389Z,21.00
2022-08-26T05:30:35.488Z,21.30
2022-08-26T05:36:37.929Z,21.60
2022-08-26T05:42:40.284Z,21.70
2022-08-26T05:48:44.448Z,21.90
2022-08-26T05:54:46.566Z,22.00
2022-08-26T06:01:01.389Z,22.10
2022-08-26T06:07:05.432Z,22.10
2022-08-26T06:13:11.872Z,22.20
2022-08-26T06:19:15.622Z,22.30
2022-08-26T06:25:36.080Z,22.40
2022-08-26T06:31:40.061Z,22.50
2022-08-26T06:37:42.842Z,22.70
2022-08-26T06:43:44.829Z,23.00
2022-08-26T06:49:46.960Z,23.30
2022-08-26T06:55:51.865Z,23.70
2022-08-26T07:01:54.723Z,25.00
2022-08-26T07:07:57.971Z,26.80
2022-08-26T07:14:00.934Z,27.40
2022-08-26T07:20:07.565Z,26.90
2022-08-26T07:26:16.159Z,26.30
2022-08-26T07:32:22.830Z,26.40
2022-08-26T07:38:24.950Z,26.50
2022-08-26T07:44:27.790Z,26.70
2022-08-26T07:50:48.796Z,26.70
2022-08-26T07:56:51.896Z,27.10
2022-08-26T08:02:54.243Z,27.50
2022-08-26T08:09:00.833Z,27.70
2022-08-26T08:15:02.856Z,28.00
2022-08-26T08:21:21.441Z,28.40
2022-08-26T08:27:25.736Z,28.60
2022-08-26T08:33:30.162Z,28.90
2022-08-26T08:39:33.091Z,29.30
2022-08-26T08:45:56.521Z,30.00
2022-08-26T08:52:35.284Z,30.60
2022-08-26T08:58:59.100Z,30.80
2022-08-26T09:05:34.052Z,30.70
2022-08-26T09:11:36.645Z,31.10
2022-08-26T09:18:27.642Z,30.80
2022-08-26T09:24:38.356Z,31.20
2022-08-26T09:30:47.926Z,31.70
2022-08-26T09:36:55.731Z,32.30
2022-08-26T09:43:22.604Z,32.70
2022-08-26T09:49:36.417Z,33.10
2022-08-26T09:55:42.958Z,33.60
2022-08-26T10:01:45.252Z,33.60
2022-08-26T10:07:51.175Z,34.10
2022-08-26T10:14:03.319Z,34.40
2022-08-26T10:20:31.279Z,34.20
2022-08-26T10:26:51.760Z,34.40
2022-08-26T10:33:18.475Z,34.30
2022-08-26T10:39:31.843Z,35.10
2022-08-26T10:45:50.742Z,35.80
2022-08-26T10:52:29.506Z,36.50
2022-08-26T10:59:15.235Z,36.70
2022-08-26T11:05:23.530Z,38.40
2022-08-26T11:11:42.045Z,39.60
2022-08-26T11:18:05.160Z,40.50
2022-08-26T11:24:07.153Z,39.80
2022-08-26T11:30:20.793Z,39.70
2022-08-26T11:36:41.097Z,40.00
2022-08-26T11:42:50.743Z,39.10
2022-08-26T11:49:02.767Z,38.60
2022-08-26T11:55:14.339Z,40.10
2022-08-26T12:01:32.490Z,41.30
2022-08-26T12:07:34.696Z,41.20
2022-08-26T12:13:39.056Z,41.00
2022-08-26T12:19:41.162Z,39.80
2022-08-26T12:25:43.192Z,37.70
2022-08-26T12:31:45.630Z,35.80
2022-08-26T12:37:54.065Z,34.40
2022-08-26T12:43:56.727Z,33.90
2022-08-26T12:50:05.944Z,33.80
2022-08-26T12:56:28.933Z,33.50
2022-08-26T13:02:39.989Z,35.10
2022-08-26T13:09:24.327Z,36.90
2022-08-26T13:15:26.401Z,37.90
2022-08-26T13:21:37.384Z,36.80
2022-08-26T13:27:40.390Z,34.70
2022-08-26T13:33:44.490Z,34.30
2022-08-26T13:39:46.795Z,34.20
2022-08-26T13:45:49.469Z,35.40
2022-08-26T13:51:51.479Z,35.10
2022-08-26T13:57:56.625Z,34.50
2022-08-26T14:03:59.095Z,33.70
2022-08-26T14:10:01.665Z,33.10
2022-08-26T14:16:09.142Z,32.70
2022-08-26T14:22:11.199Z,31.90
2022-08-26T14:28:13.226Z,30.70
2022-08-26T14:34:15.699Z,29.80
2022-08-26T14:40:20.333Z,29.10
2022-08-26T14:46:22.455Z,28.70
2022-08-26T14:52:24.924Z,28.50
2022-08-26T14:58:35.020Z,28.70
2022-08-26T15:04:38.444Z,28.70
2022-08-26T15:10:40.444Z,28.80
2022-08-26T15:16:42.583Z,28.80
2022-08-26T15:22:44.596Z,28.60
2022-08-26T15:28:47.366Z,28.50
2022-08-26T15:34:53.019Z,28.50
2022-08-26T15:40:55.346Z,28.40
2022-08-26T15:46:59.083Z,28.40
2022-08-26T15:53:01.478Z,28.30
2022-08-26T15:59:07.514Z,28.20
2022-08-26T16:05:10.411Z,28.10
2022-08-26T16:11:14.032Z,28.30
2022-08-26T16:17:16.072Z,28.50
2022-08-26T16:23:19.011Z,28.50
2022-08-26T16:29:21.055Z,28.30
2022-08-26T16:35:23.223Z,28.40
2022-08-26T16:41:29.279Z,28.40
2022-08-26T16:47:31.760Z,28.00
2022-08-26T16:53:33.837Z,27.80
2022-08-26T16:59:35.991Z,27.30
2022-08-26T17:05:38.340Z,27.00
2022-08-26T17:11:40.472Z,27.00
2022-08-26T17:17:42.604Z,26.90
2022-08-26T17:23:45.135Z,26.70
2022-08-26T17:29:47.116Z,26.80
2022-08-26T17:35:49.090Z,26.60
2022-08-26T17:41:51.535Z,26.60
2022-08-26T17:47:56.609Z,26.60
2022-08-26T17:53:58.664Z,26.50
2022-08-26T18:00:00.955Z,26.30
2022-08-26T18:06:07.977Z,25.90
2022-08-26T18:12:10.795Z,25.50
2022-08-26T18:18:14.858Z,25.10
2022-08-26T18:24:17.003Z,24.70
2022-08-26T18:30:21.608Z,24.00
2022-08-26T18:36:33.271Z,23.50
2022-08-26T18:42:35.493Z,22.90
2022-08-26T18:48:39.622Z,22.60
2022-08-26T18:54:41.599Z,22.50
2022-08-26T19:00:43.596Z,22.30
2022-08-26T19:06:50.964Z,22.00
2022-08-26T19:12:55.382Z,21.80
2022-08-26T19:19:01.916Z,21.80
2022-08-26T19:25:04.392Z,21.60
2022-08-26T19:31:10.475Z,21.60
2022-08-26T19:37:12.502Z,21.70
2022-08-26T19:43:14.488Z,21.50
2022-08-26T19:49:16.548Z,21.40
2022-08-26T19:55:21.003Z,21.40
2022-08-26T20:01:23.335Z,21.40
2022-08-26T20:07:25.494Z,21.40
2022-08-26T20:13:28.241Z,21.50
2022-08-26T20:19:48.981Z,21.40
2022-08-26T20:25:50.958Z,21.40
2022-08-26T20:31:54.627Z,21.30
2022-08-26T20:37:56.678Z,21.30
2022-08-26T20:43:59.404Z,21.40
2022-08-26T20:50:02.525Z,21.40
2022-08-26T20:56:08.282Z,21.40
2022-08-26T21:02:10.360Z,21.60
2022-08-26T21:08:13.218Z,21.60
2022-08-26T21:14:17.010Z,21.60
2022-08-26T21:20:19.804Z,21.60
2022-08-26T21:26:22.952Z,21.80
2022-08-26T21:32:25.002Z,21.80
2022-08-26T21:38:30.855Z,21.80
2022-08-26T21:44:32.867Z,21.80
2022-08-26T21:50:38.230Z,21.80
2022-08-26T21:56:46.157Z,21.80
2022-08-26T22:02:50.199Z,21.60
2022-08-26T22:08:53.848Z,21.50
2022-08-26T22:14:55.845Z,21.40
2022-08-26T22:21:03.200Z,21.30
2022-08-26T22:27:05.358Z,21.10
2022-08-26T22:33:07.447Z,21.10
2022-08-26T22:39:10.469Z,21.00
2022-08-26T22:45:13.070Z,20.90
2022-08-26T22:51:15.110Z,20.60
2022-08-26T22:57:17.109Z,20.60
2022-08-26T23:03:19.282Z,20.40
2022-08-26T23:09:21.386Z,20.30
2022-08-26T23:15:24.531Z,20.20
2022-08-26T23:21:26.534Z,20.10
2022-08-26T23:27:29.209Z,20.10
2022-08-26T23:33:51.281Z,20.00
2022-08-26T23:39:55.205Z,20.10
2022-08-26T23:45:57.310Z,20.00
2022-08-26T23:52:17.810Z,20.00
2022-08-26T23:58:21.947Z,19.90
